sensor_id;sensor_type;location;lat;lon;timestamp;temperature;humidity
5578;DHT22;2811;51.900;10.734;2023-04-25T00:01:26;9.10;99.90
5578;DHT22;2811;51.900;10.734;2023-04-25T00:03:52;9.00;99.90
5578;DHT22;2811;51.900;10.734;2023-04-25T00:06:21;9.00;99.90
5578;DHT22;2811;51.900;10.734;2023-04-25T00:08:52;8.90;99.90
5578;DHT22;2811;51.900;10.734;2023-04-25T00:11:18;8.90;99.90
5578;DHT22;2811;51.900;10.734;2023-04-25T00:13:45;8.90;99.90
5578;DHT22;2811;51.900;10.734;2023-04-25T00:16:12;8.70;99.90
5578;DHT22;2811;51.900;10.734;2023-04-25T00:18:39;8.70;99.90
5578;DHT22;2811;51.900;10.734;2023-04-25T00:21:06;8.70;99.90
5578;DHT22;2811;51.900;10.734;2023-04-25T00:23:34;8.70;99.90
5578;DHT22;2811;51.900;10.734;2023-04-25T00:26:02;8.60;99.90
5578;DHT22;2811;51.900;10.734;2023-04-25T00:28:29;8.60;99.90
5578;DHT22;2811;51.900;10.734;2023-04-25T00:30:55;8.70;99.90
5578;DHT22;2811;51.900;10.734;2023-04-25T00:33:22;8.80;99.90
5578;DHT22;2811;51.900;10.734;2023-04-25T00:35:49;8.70;99.90
5578;DHT22;2811;51.900;10.734;2023-04-25T00:38:15;8.60;99.90
5578;DHT22;2811;51.900;10.734;2023-04-25T00:40:43;8.60;99.90
5578;DHT22;2811;51.900;10.734;2023-04-25T00:43:10;8.60;99.90
5578;DHT22;2811;51.900;10.734;2023-04-25T00:45:38;8.50;99.90
5578;DHT22;2811;51.900;10.734;2023-04-25T00:48:05;8.60;99.90
5578;DHT22;2811;51.900;10.734;2023-04-25T00:50:33;8.60;99.90
5578;DHT22;2811;51.900;10.734;2023-04-25T00:53:00;8.60;99.90
5578;DHT22;2811;51.900;10.734;2023-04-25T00:55:28;8.50;99.90
5578;DHT22;2811;51.900;10.734;2023-04-25T00:57:56;8.50;99.90
5578;DHT22;2811;51.900;10.734;2023-04-25T01:00:22;8.50;99.90
5578;DHT22;2811;51.900;10.734;2023-04-25T01:02:49;8.60;99.90
5578;DHT22;2811;51.900;10.734;2023-04-25T01:05:16;8.60;99.90
5578;DHT22;2811;51.900;10.734;2023-04-25T01:07:44;8.70;99.90
5578;DHT22;2811;51.900;10.734;2023-04-25T01:10:11;8.70;99.90
5578;DHT22;2811;51.900;10.734;2023-04-25T01:12:38;8.60;99.90
5578;DHT22;2811;51.900;10.734;2023-04-25T01:15:06;8.50;99.90
5578;DHT22;2811;51.900;10.734;2023-04-25T01:17:34;8.50;99.90
5578;DHT22;2811;51.900;10.734;2023-04-25T01:20:03;8.40;99.90
5578;DHT22;2811;51.900;10.734;2023-04-25T01:22:32;8.40;99.90
5578;DHT22;2811;51.900;10.734;2023-04-25T01:24:59;8.50;99.90
5578;DHT22;2811;51.900;10.734;2023-04-25T01:27:26;8.50;99.90
5578;DHT22;2811;51.900;10.734;2023-04-25T01:29:54;8.40;99.90
5578;DHT22;2811;51.900;10.734;2023-04-25T01:32:22;8.40;99.90
5578;DHT22;2811;51.900;10.734;2023-04-25T01:34:49;8.40;99.90
5578;DHT22;2811;51.900;10.734;2023-04-25T01:37:17;8.40;99.90
5578;DHT22;2811;51.900;10.734;2023-04-25T01:39:45;8.40;99.90
5578;DHT22;2811;51.900;10.734;2023-04-25T01:42:12;8.40;99.90
5578;DHT22;2811;51.900;10.734;2023-04-25T01:44:39;8.30;99.90
5578;DHT22;2811;51.900;10.734;2023-04-25T01:47:06;8.20;99.90
5578;DHT22;2811;51.900;10.734;2023-04-25T01:49:33;8.10;99.90
5578;DHT22;2811;51.900;10.734;2023-04-25T01:51:59;8.10;99.90
5578;DHT22;2811;51.900;10.734;2023-04-25T01:54:26;8.20;99.90
5578;DHT22;2811;51.900;10.734;2023-04-25T01:56:57;8.20;99.90
5578;DHT22;2811;51.900;10.734;2023-04-25T01:59:23;8.10;99.90
5578;DHT22;2811;51.900;10.734;2023-04-25T02:01:51;8.10;99.90
5578;DHT22;2811;51.900;10.734;2023-04-25T02:04:17;8.10;99.90
5578;DHT22;2811;51.900;10.734;2023-04-25T02:06:44;8.10;99.90
5578;DHT22;2811;51.900;10.734;2023-04-25T02:09:11;8.10;99.90
5578;DHT22;2811;51.900;10.734;2023-04-25T02:11:37;8.20;99.90
5578;DHT22;2811;51.900;10.734;2023-04-25T02:14:06;8.30;99.90
5578;DHT22;2811;51.900;10.734;2023-04-25T02:16:32;8.30;99.90
5578;DHT22;2811;51.900;10.734;2023-04-25T02:19:01;8.30;99.90
5578;DHT22;2811;51.900;10.734;2023-04-25T02:21:27;8.30;99.90
5578;DHT22;2811;51.900;10.734;2023-04-25T02:23:54;8.30;99.90
5578;DHT22;2811;51.900;10.734;2023-04-25T02:26:21;8.30;99.90
5578;DHT22;2811;51.900;10.734;2023-04-25T02:28:49;8.30;99.90
5578;DHT22;2811;51.900;10.734;2023-04-25T02:31:17;8.40;99.90
5578;DHT22;2811;51.900;10.734;2023-04-25T02:33:44;8.30;99.90
5578;DHT22;2811;51.900;10.734;2023-04-25T02:36:11;8.30;99.90
5578;DHT22;2811;51.900;10.734;2023-04-25T02:38:38;8.30;99.90
5578;DHT22;2811;51.900;10.734;2023-04-25T02:41:05;8.30;99.90
5578;DHT22;2811;51.900;10.734;2023-04-25T02:43:31;8.30;99.90
5578;DHT22;2811;51.900;10.734;2023-04-25T02:45:58;8.20;99.90
5578;DHT22;2811;51.900;10.734;2023-04-25T02:48:26;8.20;99.90
5578;DHT22;2811;51.900;10.734;2023-04-25T02:50:53;8.20;99.90
5578;DHT22;2811;51.900;10.734;2023-04-25T02:53:20;8.20;99.90
5578;DHT22;2811;51.900;10.734;2023-04-25T02:55:47;8.20;99.90
5578;DHT22;2811;51.900;10.734;2023-04-25T02:58:13;8.30;99.90
5578;DHT22;2811;51.900;10.734;2023-04-25T03:00:40;8.30;99.90
5578;DHT22;2811;51.900;10.734;2023-04-25T03:03:07;8.30;99.90
5578;DHT22;2811;51.900;10.734;2023-04-25T03:05:35;8.20;99.90
5578;DHT22;2811;51.900;10.734;2023-04-25T03:08:02;8.30;99.90
5578;DHT22;2811;51.900;10.734;2023-04-25T03:10:29;8.40;99.90
5578;DHT22;2811;51.900;10.734;2023-04-25T03:12:55;8.50;99.90
5578;DHT22;2811;51.900;10.734;2023-04-25T03:15:22;8.40;99.90
5578;DHT22;2811;51.900;10.734;2023-04-25T03:17:49;8.60;99.90
5578;DHT22;2811;51.900;10.734;2023-04-25T03:20:15;8.40;99.90
5578;DHT22;2811;51.900;10.734;2023-04-25T03:22:43;8.40;99.90
5578;DHT22;2811;51.900;10.734;2023-04-25T03:25:10;8.50;99.90
5578;DHT22;2811;51.900;10.734;2023-04-25T03:27:37;8.50;99.90
5578;DHT22;2811;51.900;10.734;2023-04-25T03:30:05;8.50;99.90
5578;DHT22;2811;51.900;10.734;2023-04-25T03:32:33;8.60;99.90
5578;DHT22;2811;51.900;10.734;2023-04-25T03:35:00;8.50;99.90
5578;DHT22;2811;51.900;10.734;2023-04-25T03:37:27;8.50;99.90
5578;DHT22;2811;51.900;10.734;2023-04-25T03:39:55;8.40;99.90
5578;DHT22;2811;51.900;10.734;2023-04-25T03:42:21;8.40;99.90
5578;DHT22;2811;51.900;10.734;2023-04-25T03:44:48;8.40;99.90
5578;DHT22;2811;51.900;10.734;2023-04-25T03:47:15;8.50;99.90
5578;DHT22;2811;51.900;10.734;2023-04-25T03:49:42;8.50;99.90
5578;DHT22;2811;51.900;10.734;2023-04-25T03:52:09;8.40;99.90
5578;DHT22;2811;51.900;10.734;2023-04-25T03:54:36;8.50;99.90
5578;DHT22;2811;51.900;10.734;2023-04-25T03:57:04;8.50;99.90
5578;DHT22;2811;51.900;10.734;2023-04-25T03:59:31;8.60;99.90
5578;DHT22;2811;51.900;10.734;2023-04-25T04:01:58;8.60;99.90
5578;DHT22;2811;51.900;10.734;2023-04-25T04:04:24;8.40;99.90
5578;DHT22;2811;51.900;10.734;2023-04-25T04:06:51;8.40;99.90
5578;DHT22;2811;51.900;10.734;2023-04-25T04:09:18;8.40;99.90
5578;DHT22;2811;51.900;10.734;2023-04-25T04:11:46;8.30;99.90
5578;DHT22;2811;51.900;10.734;2023-04-25T04:14:14;8.10;99.90
5578;DHT22;2811;51.900;10.734;2023-04-25T04:16:41;8.10;99.90
5578;DHT22;2811;51.900;10.734;2023-04-25T04:19:07;8.10;99.90
5578;DHT22;2811;51.900;10.734;2023-04-25T04:21:34;8.10;99.90
5578;DHT22;2811;51.900;10.734;2023-04-25T04:24:01;8.10;99.90
5578;DHT22;2811;51.900;10.734;2023-04-25T04:26:28;8.00;99.90
5578;DHT22;2811;51.900;10.734;2023-04-25T04:28:57;8.10;99.90
5578;DHT22;2811;51.900;10.734;2023-04-25T04:31:26;8.10;99.90
5578;DHT22;2811;51.900;10.734;2023-04-25T04:33:52;8.10;99.90
5578;DHT22;2811;51.900;10.734;2023-04-25T04:36:19;8.10;99.90
5578;DHT22;2811;51.900;10.734;2023-04-25T04:38:47;8.10;99.90
5578;DHT22;2811;51.900;10.734;2023-04-25T04:41:14;8.00;99.90
5578;DHT22;2811;51.900;10.734;2023-04-25T04:43:40;8.00;99.90
5578;DHT22;2811;51.900;10.734;2023-04-25T04:46:08;7.90;99.90
5578;DHT22;2811;51.900;10.734;2023-04-25T04:48:39;7.90;99.90
5578;DHT22;2811;51.900;10.734;2023-04-25T04:51:06;7.80;99.90
5578;DHT22;2811;51.900;10.734;2023-04-25T04:53:33;7.50;99.90
5578;DHT22;2811;51.900;10.734;2023-04-25T04:56:00;7.40;99.90
5578;DHT22;2811;51.900;10.734;2023-04-25T04:58:26;7.40;99.90
5578;DHT22;2811;51.900;10.734;2023-04-25T05:00:55;7.40;99.90
5578;DHT22;2811;51.900;10.734;2023-04-25T05:03:21;7.40;99.90
5578;DHT22;2811;51.900;10.734;2023-04-25T05:05:49;7.40;99.90
5578;DHT22;2811;51.900;10.734;2023-04-25T05:08:16;7.40;99.90
5578;DHT22;2811;51.900;10.734;2023-04-25T05:10:43;7.40;99.90
5578;DHT22;2811;51.900;10.734;2023-04-25T05:13:09;7.30;99.90
5578;DHT22;2811;51.900;10.734;2023-04-25T05:15:36;7.10;99.90
5578;DHT22;2811;51.900;10.734;2023-04-25T05:18:03;6.90;99.90
5578;DHT22;2811;51.900;10.734;2023-04-25T05:20:29;6.80;99.90
5578;DHT22;2811;51.900;10.734;2023-04-25T05:22:58;6.80;99.90
5578;DHT22;2811;51.900;10.734;2023-04-25T05:25:25;6.90;99.90
5578;DHT22;2811;51.900;10.734;2023-04-25T05:27:52;6.90;99.90
5578;DHT22;2811;51.900;10.734;2023-04-25T05:30:19;7.10;99.90
5578;DHT22;2811;51.900;10.734;2023-04-25T05:32:46;7.10;99.90
5578;DHT22;2811;51.900;10.734;2023-04-25T05:35:12;7.30;99.90
5578;DHT22;2811;51.900;10.734;2023-04-25T05:37:39;7.40;99.90
5578;DHT22;2811;51.900;10.734;2023-04-25T05:40:08;7.40;99.90
5578;DHT22;2811;51.900;10.734;2023-04-25T05:42:35;7.60;99.90
5578;DHT22;2811;51.900;10.734;2023-04-25T05:45:02;7.60;99.90
5578;DHT22;2811;51.900;10.734;2023-04-25T05:47:29;7.80;99.90
5578;DHT22;2811;51.900;10.734;2023-04-25T05:49:56;7.90;99.90
5578;DHT22;2811;51.900;10.734;2023-04-25T05:52:23;7.90;99.90
5578;DHT22;2811;51.900;10.734;2023-04-25T05:54:50;8.00;99.90
5578;DHT22;2811;51.900;10.734;2023-04-25T05:57:22;8.00;99.90
5578;DHT22;2811;51.900;10.734;2023-04-25T05:59:49;8.00;99.90
5578;DHT22;2811;51.900;10.734;2023-04-25T06:02:16;7.90;99.90
5578;DHT22;2811;51.900;10.734;2023-04-25T06:04:42;8.00;99.90
5578;DHT22;2811;51.900;10.734;2023-04-25T06:07:09;8.00;99.90
5578;DHT22;2811;51.900;10.734;2023-04-25T06:09:36;8.00;99.90
5578;DHT22;2811;51.900;10.734;2023-04-25T06:12:04;7.90;99.90
5578;DHT22;2811;51.900;10.734;2023-04-25T06:14:32;8.00;99.90
5578;DHT22;2811;51.900;10.734;2023-04-25T06:16:59;8.10;99.90
5578;DHT22;2811;51.900;10.734;2023-04-25T06:19:31;8.30;99.90
5578;DHT22;2811;51.900;10.734;2023-04-25T06:21:58;8.40;99.90
5578;DHT22;2811;51.900;10.734;2023-04-25T06:24:25;8.60;99.90
5578;DHT22;2811;51.900;10.734;2023-04-25T06:26:51;8.80;99.90
5578;DHT22;2811;51.900;10.734;2023-04-25T06:29:18;9.00;99.90
5578;DHT22;2811;51.900;10.734;2023-04-25T06:31:46;9.00;99.90
5578;DHT22;2811;51.900;10.734;2023-04-25T06:34:13;9.20;99.90
5578;DHT22;2811;51.900;10.734;2023-04-25T06:36:40;9.20;99.90
5578;DHT22;2811;51.900;10.734;2023-04-25T06:39:07;9.30;99.90
5578;DHT22;2811;51.900;10.734;2023-04-25T06:41:34;9.50;99.90
5578;DHT22;2811;51.900;10.734;2023-04-25T06:44:01;10.00;99.90
5578;DHT22;2811;51.900;10.734;2023-04-25T06:46:27;10.30;99.90
5578;DHT22;2811;51.900;10.734;2023-04-25T06:48:55;10.40;99.90
5578;DHT22;2811;51.900;10.734;2023-04-25T06:51:22;10.70;99.90
5578;DHT22;2811;51.900;10.734;2023-04-25T06:53:49;10.60;99.90
5578;DHT22;2811;51.900;10.734;2023-04-25T06:56:16;10.80;99.90
5578;DHT22;2811;51.900;10.734;2023-04-25T06:58:43;10.90;99.90
5578;DHT22;2811;51.900;10.734;2023-04-25T07:01:09;10.60;99.90
5578;DHT22;2811;51.900;10.734;2023-04-25T07:03:36;10.30;99.90
5578;DHT22;2811;51.900;10.734;2023-04-25T07:06:05;10.20;99.90
5578;DHT22;2811;51.900;10.734;2023-04-25T07:08:32;10.10;99.90
5578;DHT22;2811;51.900;10.734;2023-04-25T07:10:58;10.00;99.90
5578;DHT22;2811;51.900;10.734;2023-04-25T07:13:25;9.60;99.90
5578;DHT22;2811;51.900;10.734;2023-04-25T07:15:52;9.50;99.90
5578;DHT22;2811;51.900;10.734;2023-04-25T07:18:18;9.60;99.90
5578;DHT22;2811;51.900;10.734;2023-04-25T07:20:45;9.60;99.90
5578;DHT22;2811;51.900;10.734;2023-04-25T07:23:13;9.60;99.90
5578;DHT22;2811;51.900;10.734;2023-04-25T07:25:39;9.80;99.90
5578;DHT22;2811;51.900;10.734;2023-04-25T07:28:06;9.70;99.90
5578;DHT22;2811;51.900;10.734;2023-04-25T07:30:33;9.50;99.90
5578;DHT22;2811;51.900;10.734;2023-04-25T07:33:00;9.50;99.90
5578;DHT22;2811;51.900;10.734;2023-04-25T07:35:26;9.60;99.90
5578;DHT22;2811;51.900;10.734;2023-04-25T07:37:53;9.70;99.90
5578;DHT22;2811;51.900;10.734;2023-04-25T07:40:21;9.80;99.90
5578;DHT22;2811;51.900;10.734;2023-04-25T07:42:48;9.90;99.90
5578;DHT22;2811;51.900;10.734;2023-04-25T07:45:15;9.60;99.90
5578;DHT22;2811;51.900;10.734;2023-04-25T07:47:42;9.70;99.90
5578;DHT22;2811;51.900;10.734;2023-04-25T07:50:09;9.50;99.90
5578;DHT22;2811;51.900;10.734;2023-04-25T07:52:36;9.50;99.90
5578;DHT22;2811;51.900;10.734;2023-04-25T07:55:03;9.40;99.90
5578;DHT22;2811;51.900;10.734;2023-04-25T07:57:34;9.40;99.90
5578;DHT22;2811;51.900;10.734;2023-04-25T08:00:00;9.40;99.90
5578;DHT22;2811;51.900;10.734;2023-04-25T08:02:27;9.60;99.90
5578;DHT22;2811;51.900;10.734;2023-04-25T08:04:54;9.50;99.90
5578;DHT22;2811;51.900;10.734;2023-04-25T08:07:20;9.60;99.90
5578;DHT22;2811;51.900;10.734;2023-04-25T08:09:47;9.60;99.90
5578;DHT22;2811;51.900;10.734;2023-04-25T08:12:14;9.60;99.90
5578;DHT22;2811;51.900;10.734;2023-04-25T08:14:42;9.40;99.90
5578;DHT22;2811;51.900;10.734;2023-04-25T08:17:09;9.00;99.90
5578;DHT22;2811;51.900;10.734;2023-04-25T08:19:36;8.90;99.90
5578;DHT22;2811;51.900;10.734;2023-04-25T08:22:03;8.90;99.90
5578;DHT22;2811;51.900;10.734;2023-04-25T08:24:29;9.20;99.90
5578;DHT22;2811;51.900;10.734;2023-04-25T08:26:56;9.50;99.90
5578;DHT22;2811;51.900;10.734;2023-04-25T08:29:24;9.60;99.90
5578;DHT22;2811;51.900;10.734;2023-04-25T08:31:52;9.50;99.90
5578;DHT22;2811;51.900;10.734;2023-04-25T08:34:19;9.50;99.90
5578;DHT22;2811;51.900;10.734;2023-04-25T08:36:46;9.60;99.90
5578;DHT22;2811;51.900;10.734;2023-04-25T08:39:13;9.80;99.90
5578;DHT22;2811;51.900;10.734;2023-04-25T08:41:40;9.90;99.90
5578;DHT22;2811;51.900;10.734;2023-04-25T08:44:10;9.60;99.90
5578;DHT22;2811;51.900;10.734;2023-04-25T08:46:38;9.40;99.90
5578;DHT22;2811;51.900;10.734;2023-04-25T08:49:08;9.20;99.90
5578;DHT22;2811;51.900;10.734;2023-04-25T08:51:41;9.30;99.90
5578;DHT22;2811;51.900;10.734;2023-04-25T08:54:11;9.30;99.90
5578;DHT22;2811;51.900;10.734;2023-04-25T08:56:38;9.30;99.90
5578;DHT22;2811;51.900;10.734;2023-04-25T08:59:07;9.50;99.90
5578;DHT22;2811;51.900;10.734;2023-04-25T09:01:34;9.90;99.90
5578;DHT22;2811;51.900;10.734;2023-04-25T09:04:01;9.80;99.90
5578;DHT22;2811;51.900;10.734;2023-04-25T09:06:30;10.00;99.90
5578;DHT22;2811;51.900;10.734;2023-04-25T09:09:05;10.20;99.90
5578;DHT22;2811;51.900;10.734;2023-04-25T09:11:32;10.40;99.90
5578;DHT22;2811;51.900;10.734;2023-04-25T09:14:12;10.70;99.90
5578;DHT22;2811;51.900;10.734;2023-04-25T09:17:01;11.40;99.90
5578;DHT22;2811;51.900;10.734;2023-04-25T09:19:29;11.40;99.90
5578;DHT22;2811;51.900;10.734;2023-04-25T09:21:59;11.10;99.90
5578;DHT22;2811;51.900;10.734;2023-04-25T09:24:33;10.40;99.90
5578;DHT22;2811;51.900;10.734;2023-04-25T09:27:00;9.90;99.90
5578;DHT22;2811;51.900;10.734;2023-04-25T09:29:30;9.70;99.90
5578;DHT22;2811;51.900;10.734;2023-04-25T09:32:15;9.70;99.90
5578;DHT22;2811;51.900;10.734;2023-04-25T09:34:44;9.70;99.90
5578;DHT22;2811;51.900;10.734;2023-04-25T09:37:17;10.10;99.90
5578;DHT22;2811;51.900;10.734;2023-04-25T09:39:45;10.40;99.90
5578;DHT22;2811;51.900;10.734;2023-04-25T09:42:12;10.70;99.90
5578;DHT22;2811;51.900;10.734;2023-04-25T09:44:42;10.90;99.90
5578;DHT22;2811;51.900;10.734;2023-04-25T09:47:10;10.90;99.90
5578;DHT22;2811;51.900;10.734;2023-04-25T09:49:39;11.00;99.90
5578;DHT22;2811;51.900;10.734;2023-04-25T09:52:07;11.00;99.90
5578;DHT22;2811;51.900;10.734;2023-04-25T09:54:36;10.60;99.90
5578;DHT22;2811;51.900;10.734;2023-04-25T09:57:08;10.40;99.90
5578;DHT22;2811;51.900;10.734;2023-04-25T09:59:38;10.20;99.90
5578;DHT22;2811;51.900;10.734;2023-04-25T10:02:07;9.90;99.90
5578;DHT22;2811;51.900;10.734;2023-04-25T10:04:35;9.70;99.90
5578;DHT22;2811;51.900;10.734;2023-04-25T10:07:03;9.70;99.90
5578;DHT22;2811;51.900;10.734;2023-04-25T10:09:35;9.80;99.90
5578;DHT22;2811;51.900;10.734;2023-04-25T10:12:04;9.80;98.70
5578;DHT22;2811;51.900;10.734;2023-04-25T10:14:31;9.90;98.30
5578;DHT22;2811;51.900;10.734;2023-04-25T10:16:58;9.90;98.00
5578;DHT22;2811;51.900;10.734;2023-04-25T10:19:25;9.90;98.00
5578;DHT22;2811;51.900;10.734;2023-04-25T10:21:56;9.90;98.80
5578;DHT22;2811;51.900;10.734;2023-04-25T10:24:24;10.10;98.60
5578;DHT22;2811;51.900;10.734;2023-04-25T10:26:52;10.50;98.50
5578;DHT22;2811;51.900;10.734;2023-04-25T10:29:24;11.00;98.30
5578;DHT22;2811;51.900;10.734;2023-04-25T10:31:51;11.50;96.80
5578;DHT22;2811;51.900;10.734;2023-04-25T10:34:19;11.40;94.20
5578;DHT22;2811;51.900;10.734;2023-04-25T10:36:51;11.10;93.80
5578;DHT22;2811;51.900;10.734;2023-04-25T10:39:23;11.00;95.80
5578;DHT22;2811;51.900;10.734;2023-04-25T10:41:53;11.00;95.90
5578;DHT22;2811;51.900;10.734;2023-04-25T10:44:23;10.90;95.90
5578;DHT22;2811;51.900;10.734;2023-04-25T10:46:52;11.20;96.20
5578;DHT22;2811;51.900;10.734;2023-04-25T10:49:31;11.40;95.50
5578;DHT22;2811;51.900;10.734;2023-04-25T10:52:11;11.50;95.10
5578;DHT22;2811;51.900;10.734;2023-04-25T10:54:41;11.10;95.20
5578;DHT22;2811;51.900;10.734;2023-04-25T10:57:26;10.60;95.70
5578;DHT22;2811;51.900;10.734;2023-04-25T10:59:58;10.40;96.60
5578;DHT22;2811;51.900;10.734;2023-04-25T11:02:26;10.40;96.70
5578;DHT22;2811;51.900;10.734;2023-04-25T11:04:54;10.50;96.50
5578;DHT22;2811;51.900;10.734;2023-04-25T11:07:28;10.40;97.10
5578;DHT22;2811;51.900;10.734;2023-04-25T11:09:57;10.50;97.80
5578;DHT22;2811;51.900;10.734;2023-04-25T11:12:24;11.00;98.30
5578;DHT22;2811;51.900;10.734;2023-04-25T11:14:59;11.10;96.50
5578;DHT22;2811;51.900;10.734;2023-04-25T11:17:28;11.20;97.60
5578;DHT22;2811;51.900;10.734;2023-04-25T11:19:55;11.70;97.50
5578;DHT22;2811;51.900;10.734;2023-04-25T11:22:22;12.10;96.00
5578;DHT22;2811;51.900;10.734;2023-04-25T11:24:49;12.40;95.60
5578;DHT22;2811;51.900;10.734;2023-04-25T11:27:16;12.40;94.00
5578;DHT22;2811;51.900;10.734;2023-04-25T11:29:43;12.30;93.80
5578;DHT22;2811;51.900;10.734;2023-04-25T11:32:11;12.30;93.80
5578;DHT22;2811;51.900;10.734;2023-04-25T11:34:38;11.90;93.80
5578;DHT22;2811;51.900;10.734;2023-04-25T11:37:04;11.80;94.70
5578;DHT22;2811;51.900;10.734;2023-04-25T11:39:32;11.60;95.30
5578;DHT22;2811;51.900;10.734;2023-04-25T11:41:59;11.70;95.20
5578;DHT22;2811;51.900;10.734;2023-04-25T11:44:26;11.90;95.50
5578;DHT22;2811;51.900;10.734;2023-04-25T11:46:55;11.80;95.70
5578;DHT22;2811;51.900;10.734;2023-04-25T11:49:23;11.90;95.70
5578;DHT22;2811;51.900;10.734;2023-04-25T11:51:50;12.10;94.70
5578;DHT22;2811;51.900;10.734;2023-04-25T11:54:17;12.10;95.00
5578;DHT22;2811;51.900;10.734;2023-04-25T11:56:44;12.00;93.70
5578;DHT22;2811;51.900;10.734;2023-04-25T11:59:11;11.90;94.30
5578;DHT22;2811;51.900;10.734;2023-04-25T12:01:39;12.10;94.40
5578;DHT22;2811;51.900;10.734;2023-04-25T12:04:13;12.00;93.30
5578;DHT22;2811;51.900;10.734;2023-04-25T12:06:45;12.10;93.30
5578;DHT22;2811;51.900;10.734;2023-04-25T12:09:13;12.20;91.60
5578;DHT22;2811;51.900;10.734;2023-04-25T12:11:41;12.40;92.20
5578;DHT22;2811;51.900;10.734;2023-04-25T12:14:08;12.40;91.00
5578;DHT22;2811;51.900;10.734;2023-04-25T12:16:41;12.20;91.70
5578;DHT22;2811;51.900;10.734;2023-04-25T12:19:08;12.30;92.00
5578;DHT22;2811;51.900;10.734;2023-04-25T12:21:35;12.10;93.10
5578;DHT22;2811;51.900;10.734;2023-04-25T12:24:11;11.80;93.10
5578;DHT22;2811;51.900;10.734;2023-04-25T12:26:48;11.30;93.70
5578;DHT22;2811;51.900;10.734;2023-04-25T12:29:17;11.20;94.70
5578;DHT22;2811;51.900;10.734;2023-04-25T12:31:43;11.10;95.10
5578;DHT22;2811;51.900;10.734;2023-04-25T12:34:11;11.00;95.00
5578;DHT22;2811;51.900;10.734;2023-04-25T12:36:38;11.10;95.00
5578;DHT22;2811;51.900;10.734;2023-04-25T12:39:05;11.20;94.80
5578;DHT22;2811;51.900;10.734;2023-04-25T12:41:33;11.60;94.90
5578;DHT22;2811;51.900;10.734;2023-04-25T12:44:00;11.70;93.60
5578;DHT22;2811;51.900;10.734;2023-04-25T12:46:27;11.80;94.10
5578;DHT22;2811;51.900;10.734;2023-04-25T12:48:53;11.80;94.50
5578;DHT22;2811;51.900;10.734;2023-04-25T12:51:21;11.60;94.20
5578;DHT22;2811;51.900;10.734;2023-04-25T12:53:50;11.40;94.90
5578;DHT22;2811;51.900;10.734;2023-04-25T12:56:17;11.10;95.70
5578;DHT22;2811;51.900;10.734;2023-04-25T12:58:45;10.80;95.70
5578;DHT22;2811;51.900;10.734;2023-04-25T13:01:13;10.60;95.80
5578;DHT22;2811;51.900;10.734;2023-04-25T13:03:40;10.50;96.70
5578;DHT22;2811;51.900;10.734;2023-04-25T13:06:07;10.30;97.20
5578;DHT22;2811;51.900;10.734;2023-04-25T13:08:34;10.10;97.60
5578;DHT22;2811;51.900;10.734;2023-04-25T13:11:02;9.90;98.60
5578;DHT22;2811;51.900;10.734;2023-04-25T13:13:29;10.00;98.40
5578;DHT22;2811;51.900;10.734;2023-04-25T13:15:58;10.10;98.60
5578;DHT22;2811;51.900;10.734;2023-04-25T13:18:25;10.20;98.20
5578;DHT22;2811;51.900;10.734;2023-04-25T13:20:52;10.30;97.90
5578;DHT22;2811;51.900;10.734;2023-04-25T13:23:18;10.40;97.40
5578;DHT22;2811;51.900;10.734;2023-04-25T13:25:45;10.50;98.10
5578;DHT22;2811;51.900;10.734;2023-04-25T13:28:12;10.70;97.60
5578;DHT22;2811;51.900;10.734;2023-04-25T13:30:40;10.60;97.70
5578;DHT22;2811;51.900;10.734;2023-04-25T13:33:08;10.50;97.70
5578;DHT22;2811;51.900;10.734;2023-04-25T13:35:36;10.40;97.70
5578;DHT22;2811;51.900;10.734;2023-04-25T13:38:03;10.30;98.20
5578;DHT22;2811;51.900;10.734;2023-04-25T13:40:31;10.00;99.10
5578;DHT22;2811;51.900;10.734;2023-04-25T13:42:58;9.80;99.90
5578;DHT22;2811;51.900;10.734;2023-04-25T13:45:25;9.80;99.90
5578;DHT22;2811;51.900;10.734;2023-04-25T13:47:52;9.80;99.90
5578;DHT22;2811;51.900;10.734;2023-04-25T13:50:20;9.90;99.90
5578;DHT22;2811;51.900;10.734;2023-04-25T13:52:47;9.70;99.90
5578;DHT22;2811;51.900;10.734;2023-04-25T13:55:14;9.70;99.90
5578;DHT22;2811;51.900;10.734;2023-04-25T13:57:41;9.70;99.90
5578;DHT22;2811;51.900;10.734;2023-04-25T14:00:09;9.90;99.90
5578;DHT22;2811;51.900;10.734;2023-04-25T14:02:36;10.30;99.90
5578;DHT22;2811;51.900;10.734;2023-04-25T14:05:04;10.70;98.70
5578;DHT22;2811;51.900;10.734;2023-04-25T14:07:33;11.00;97.30
5578;DHT22;2811;51.900;10.734;2023-04-25T14:10:00;11.30;96.60
5578;DHT22;2811;51.900;10.734;2023-04-25T14:12:27;11.50;95.00
5578;DHT22;2811;51.900;10.734;2023-04-25T14:14:54;11.60;94.20
5578;DHT22;2811;51.900;10.734;2023-04-25T14:17:20;11.30;94.30
5578;DHT22;2811;51.900;10.734;2023-04-25T14:19:47;11.20;94.70
5578;DHT22;2811;51.900;10.734;2023-04-25T14:22:15;11.20;94.60
5578;DHT22;2811;51.900;10.734;2023-04-25T14:24:43;11.20;94.70
5578;DHT22;2811;51.900;10.734;2023-04-25T14:27:09;11.20;95.30
5578;DHT22;2811;51.900;10.734;2023-04-25T14:29:37;11.20;96.10
5578;DHT22;2811;51.900;10.734;2023-04-25T14:32:04;11.20;95.40
5578;DHT22;2811;51.900;10.734;2023-04-25T14:34:30;11.20;95.50
5578;DHT22;2811;51.900;10.734;2023-04-25T14:36:57;10.90;96.20
5578;DHT22;2811;51.900;10.734;2023-04-25T14:39:24;10.70;97.00
5578;DHT22;2811;51.900;10.734;2023-04-25T14:41:52;10.80;97.00
5578;DHT22;2811;51.900;10.734;2023-04-25T14:44:18;10.80;97.70
5578;DHT22;2811;51.900;10.734;2023-04-25T14:46:45;10.80;96.90
5578;DHT22;2811;51.900;10.734;2023-04-25T14:49:12;10.80;96.50
5578;DHT22;2811;51.900;10.734;2023-04-25T14:51:39;10.60;97.10
5578;DHT22;2811;51.900;10.734;2023-04-25T14:54:06;10.60;96.50
5578;DHT22;2811;51.900;10.734;2023-04-25T14:56:33;10.60;96.20
5578;DHT22;2811;51.900;10.734;2023-04-25T14:59:01;10.50;95.90
5578;DHT22;2811;51.900;10.734;2023-04-25T15:01:28;10.40;95.90
5578;DHT22;2811;51.900;10.734;2023-04-25T15:03:54;10.20;96.10
5578;DHT22;2811;51.900;10.734;2023-04-25T15:06:22;10.10;95.80
5578;DHT22;2811;51.900;10.734;2023-04-25T15:08:51;10.00;96.20
5578;DHT22;2811;51.900;10.734;2023-04-25T15:11:18;9.90;97.20
5578;DHT22;2811;51.900;10.734;2023-04-25T15:13:45;9.90;97.70
5578;DHT22;2811;51.900;10.734;2023-04-25T15:16:13;9.90;98.50
5578;DHT22;2811;51.900;10.734;2023-04-25T15:18:40;10.00;98.30
5578;DHT22;2811;51.900;10.734;2023-04-25T15:21:07;10.00;98.20
5578;DHT22;2811;51.900;10.734;2023-04-25T15:23:33;10.20;98.20
5578;DHT22;2811;51.900;10.734;2023-04-25T15:26:00;10.50;98.20
5578;DHT22;2811;51.900;10.734;2023-04-25T15:28:27;10.80;97.80
5578;DHT22;2811;51.900;10.734;2023-04-25T15:30:54;11.10;96.40
5578;DHT22;2811;51.900;10.734;2023-04-25T15:33:22;11.20;96.10
5578;DHT22;2811;51.900;10.734;2023-04-25T15:35:49;11.20;95.50
5578;DHT22;2811;51.900;10.734;2023-04-25T15:38:15;11.40;96.50
5578;DHT22;2811;51.900;10.734;2023-04-25T15:40:42;11.40;96.50
5578;DHT22;2811;51.900;10.734;2023-04-25T15:43:09;11.20;95.30
5578;DHT22;2811;51.900;10.734;2023-04-25T15:45:40;10.90;95.70
5578;DHT22;2811;51.900;10.734;2023-04-25T15:48:07;10.90;96.90
5578;DHT22;2811;51.900;10.734;2023-04-25T15:50:35;10.80;96.90
5578;DHT22;2811;51.900;10.734;2023-04-25T15:53:02;10.70;97.30
5578;DHT22;2811;51.900;10.734;2023-04-25T15:55:28;10.40;97.80
5578;DHT22;2811;51.900;10.734;2023-04-25T15:57:55;10.30;98.00